Aviation Digital Data Service (ADDS)

Output produced by METARs form (1826 UTC 28 July 2014)
found at http://aviationweather.gov/adds/metars/
 
KLGA 281730Z 2818/2918 23012G19KT P6SM SCT035 BKN050 
     FM282100 26016G26KT P6SM SCT050 
     FM290300 30015G22KT P6SM SCT100 
     FM290900 30008KT P6SM SCT100